sensor_id;sensor_type;location;lat;lon;timestamp;P1;durP1;ratioP1;P2;durP2;ratioP2
1925;SDS011;964;42.606;23.588;2024-01-06T00:02:26;21.37;;;11.83;;
1925;SDS011;964;42.606;23.588;2024-01-06T00:04:53;21.60;;;10.83;;
1925;SDS011;964;42.606;23.588;2024-01-06T00:07:20;27.30;;;14.00;;
1925;SDS011;964;42.606;23.588;2024-01-06T00:09:46;31.43;;;17.37;;
1925;SDS011;964;42.606;23.588;2024-01-06T00:12:13;29.33;;;14.70;;
1925;SDS011;964;42.606;23.588;2024-01-06T00:14:40;33.00;;;15.87;;
1925;SDS011;964;42.606;23.588;2024-01-06T00:17:11;34.90;;;14.90;;
1925;SDS011;964;42.606;23.588;2024-01-06T00:19:38;32.27;;;15.27;;
1925;SDS011;964;42.606;23.588;2024-01-06T00:22:04;37.33;;;15.13;;
1925;SDS011;964;42.606;23.588;2024-01-06T00:24:31;33.80;;;14.63;;
1925;SDS011;964;42.606;23.588;2024-01-06T00:26:58;32.67;;;13.20;;
1925;SDS011;964;42.606;23.588;2024-01-06T00:29:24;18.77;;;10.33;;
1925;SDS011;964;42.606;23.588;2024-01-06T00:31:51;14.30;;;7.20;;
1925;SDS011;964;42.606;23.588;2024-01-06T00:34:20;13.20;;;6.30;;
1925;SDS011;964;42.606;23.588;2024-01-06T00:36:47;8.43;;;5.60;;
1925;SDS011;964;42.606;23.588;2024-01-06T00:39:13;6.23;;;4.60;;
1925;SDS011;964;42.606;23.588;2024-01-06T00:41:40;7.10;;;3.80;;
1925;SDS011;964;42.606;23.588;2024-01-06T00:44:07;7.37;;;4.40;;
1925;SDS011;964;42.606;23.588;2024-01-06T00:46:34;8.67;;;4.47;;
1925;SDS011;964;42.606;23.588;2024-01-06T00:49:01;7.10;;;4.20;;
1925;SDS011;964;42.606;23.588;2024-01-06T00:51:30;6.87;;;5.03;;
1925;SDS011;964;42.606;23.588;2024-01-06T00:53:57;10.20;;;7.23;;
1925;SDS011;964;42.606;23.588;2024-01-06T00:56:24;16.10;;;6.27;;
1925;SDS011;964;42.606;23.588;2024-01-06T00:58:52;11.53;;;6.50;;
1925;SDS011;964;42.606;23.588;2024-01-06T01:01:19;12.60;;;8.07;;
1925;SDS011;964;42.606;23.588;2024-01-06T01:03:45;21.27;;;11.30;;
1925;SDS011;964;42.606;23.588;2024-01-06T01:06:12;14.37;;;8.77;;
1925;SDS011;964;42.606;23.588;2024-01-06T01:08:40;15.57;;;8.67;;
1925;SDS011;964;42.606;23.588;2024-01-06T01:11:07;14.97;;;8.23;;
1925;SDS011;964;42.606;23.588;2024-01-06T01:13:34;11.80;;;8.30;;
1925;SDS011;964;42.606;23.588;2024-01-06T01:16:01;9.20;;;6.40;;
1925;SDS011;964;42.606;23.588;2024-01-06T01:18:29;11.50;;;7.73;;
1925;SDS011;964;42.606;23.588;2024-01-06T01:20:56;13.27;;;8.40;;
1925;SDS011;964;42.606;23.588;2024-01-06T01:23:22;19.90;;;9.97;;
1925;SDS011;964;42.606;23.588;2024-01-06T01:25:51;17.07;;;9.57;;
1925;SDS011;964;42.606;23.588;2024-01-06T01:28:18;15.23;;;7.97;;
1925;SDS011;964;42.606;23.588;2024-01-06T01:30:45;16.37;;;8.10;;
1925;SDS011;964;42.606;23.588;2024-01-06T01:33:12;12.47;;;8.00;;
1925;SDS011;964;42.606;23.588;2024-01-06T01:35:39;13.90;;;7.83;;
1925;SDS011;964;42.606;23.588;2024-01-06T01:38:06;10.33;;;7.63;;
1925;SDS011;964;42.606;23.588;2024-01-06T01:40:33;13.97;;;7.27;;
1925;SDS011;964;42.606;23.588;2024-01-06T01:43:01;10.83;;;7.80;;
1925;SDS011;964;42.606;23.588;2024-01-06T01:45:28;12.97;;;8.30;;
1925;SDS011;964;42.606;23.588;2024-01-06T01:47:55;10.70;;;6.93;;
1925;SDS011;964;42.606;23.588;2024-01-06T01:50:22;18.20;;;8.23;;
1925;SDS011;964;42.606;23.588;2024-01-06T01:52:52;11.27;;;7.80;;
1925;SDS011;964;42.606;23.588;2024-01-06T01:55:20;15.13;;;8.30;;
1925;SDS011;964;42.606;23.588;2024-01-06T01:57:47;11.80;;;7.93;;
1925;SDS011;964;42.606;23.588;2024-01-06T02:00:16;15.63;;;9.27;;
1925;SDS011;964;42.606;23.588;2024-01-06T02:02:43;13.50;;;7.80;;
1925;SDS011;964;42.606;23.588;2024-01-06T02:05:10;18.83;;;10.10;;
1925;SDS011;964;42.606;23.588;2024-01-06T02:07:36;19.83;;;11.00;;
1925;SDS011;964;42.606;23.588;2024-01-06T02:10:04;21.33;;;11.47;;
1925;SDS011;964;42.606;23.588;2024-01-06T02:12:32;16.67;;;9.77;;
1925;SDS011;964;42.606;23.588;2024-01-06T02:14:59;16.40;;;10.70;;
1925;SDS011;964;42.606;23.588;2024-01-06T02:17:27;18.63;;;10.20;;
1925;SDS011;964;42.606;23.588;2024-01-06T02:19:54;15.27;;;9.07;;
1925;SDS011;964;42.606;23.588;2024-01-06T02:22:23;21.10;;;10.20;;
1925;SDS011;964;42.606;23.588;2024-01-06T02:24:50;16.43;;;9.57;;
1925;SDS011;964;42.606;23.588;2024-01-06T02:27:17;15.90;;;9.23;;
1925;SDS011;964;42.606;23.588;2024-01-06T02:29:43;15.57;;;9.70;;
1925;SDS011;964;42.606;23.588;2024-01-06T02:32:10;14.83;;;8.87;;
1925;SDS011;964;42.606;23.588;2024-01-06T02:34:37;15.70;;;9.30;;
1925;SDS011;964;42.606;23.588;2024-01-06T02:37:04;9.50;;;5.90;;
1925;SDS011;964;42.606;23.588;2024-01-06T02:39:32;14.70;;;6.20;;
1925;SDS011;964;42.606;23.588;2024-01-06T02:41:59;7.40;;;5.97;;
1925;SDS011;964;42.606;23.588;2024-01-06T02:44:26;14.07;;;6.20;;
1925;SDS011;964;42.606;23.588;2024-01-06T02:46:53;11.20;;;6.90;;
1925;SDS011;964;42.606;23.588;2024-01-06T02:49:20;8.23;;;5.80;;
1925;SDS011;964;42.606;23.588;2024-01-06T02:51:47;7.07;;;5.10;;
1925;SDS011;964;42.606;23.588;2024-01-06T02:54:14;11.93;;;5.50;;
1925;SDS011;964;42.606;23.588;2024-01-06T02:56:42;8.17;;;5.63;;
1925;SDS011;964;42.606;23.588;2024-01-06T02:59:09;7.63;;;6.13;;
1925;SDS011;964;42.606;23.588;2024-01-06T03:01:36;9.60;;;6.63;;
1925;SDS011;964;42.606;23.588;2024-01-06T03:04:03;20.87;;;10.40;;
1925;SDS011;964;42.606;23.588;2024-01-06T03:06:30;17.23;;;9.13;;
1925;SDS011;964;42.606;23.588;2024-01-06T03:08:57;15.50;;;7.93;;
1925;SDS011;964;42.606;23.588;2024-01-06T03:11:24;13.73;;;7.40;;
1925;SDS011;964;42.606;23.588;2024-01-06T03:13:52;13.83;;;7.70;;
1925;SDS011;964;42.606;23.588;2024-01-06T03:16:19;9.50;;;6.97;;
1925;SDS011;964;42.606;23.588;2024-01-06T03:18:46;15.80;;;7.43;;
1925;SDS011;964;42.606;23.588;2024-01-06T03:21:17;10.90;;;6.80;;
1925;SDS011;964;42.606;23.588;2024-01-06T03:23:44;15.27;;;8.33;;
1925;SDS011;964;42.606;23.588;2024-01-06T03:26:11;12.47;;;7.73;;
1925;SDS011;964;42.606;23.588;2024-01-06T03:28:38;11.20;;;7.80;;
1925;SDS011;964;42.606;23.588;2024-01-06T03:31:06;15.27;;;8.20;;
1925;SDS011;964;42.606;23.588;2024-01-06T03:33:33;11.00;;;8.57;;
1925;SDS011;964;42.606;23.588;2024-01-06T03:36:03;12.30;;;9.17;;
1925;SDS011;964;42.606;23.588;2024-01-06T03:38:31;15.60;;;8.40;;
1925;SDS011;964;42.606;23.588;2024-01-06T03:40:58;16.13;;;8.30;;
1925;SDS011;964;42.606;23.588;2024-01-06T03:43:25;17.07;;;8.17;;
1925;SDS011;964;42.606;23.588;2024-01-06T03:45:52;13.13;;;8.30;;
1925;SDS011;964;42.606;23.588;2024-01-06T03:48:22;10.47;;;7.53;;
1925;SDS011;964;42.606;23.588;2024-01-06T03:50:49;12.50;;;8.10;;
1925;SDS011;964;42.606;23.588;2024-01-06T03:53:15;9.73;;;7.73;;
1925;SDS011;964;42.606;23.588;2024-01-06T03:55:42;14.37;;;8.20;;
1925;SDS011;964;42.606;23.588;2024-01-06T03:58:09;12.73;;;8.70;;
1925;SDS011;964;42.606;23.588;2024-01-06T04:00:36;11.83;;;8.40;;
1925;SDS011;964;42.606;23.588;2024-01-06T04:03:03;16.90;;;9.43;;
1925;SDS011;964;42.606;23.588;2024-01-06T04:05:33;19.73;;;10.40;;
1925;SDS011;964;42.606;23.588;2024-01-06T04:08:00;23.83;;;11.03;;
1925;SDS011;964;42.606;23.588;2024-01-06T04:10:27;16.90;;;11.20;;
1925;SDS011;964;42.606;23.588;2024-01-06T04:12:53;18.00;;;11.30;;
1925;SDS011;964;42.606;23.588;2024-01-06T04:15:20;16.00;;;10.70;;
1925;SDS011;964;42.606;23.588;2024-01-06T04:17:48;16.23;;;10.87;;
1925;SDS011;964;42.606;23.588;2024-01-06T04:20:15;18.57;;;10.67;;
1925;SDS011;964;42.606;23.588;2024-01-06T04:22:43;19.93;;;12.17;;
1925;SDS011;964;42.606;23.588;2024-01-06T04:25:11;20.07;;;10.67;;
1925;SDS011;964;42.606;23.588;2024-01-06T04:27:37;17.90;;;11.60;;
1925;SDS011;964;42.606;23.588;2024-01-06T04:30:05;14.90;;;10.63;;
1925;SDS011;964;42.606;23.588;2024-01-06T04:32:33;17.50;;;10.47;;
1925;SDS011;964;42.606;23.588;2024-01-06T04:35:00;16.27;;;10.10;;
1925;SDS011;964;42.606;23.588;2024-01-06T04:37:26;19.77;;;12.87;;
1925;SDS011;964;42.606;23.588;2024-01-06T04:39:55;29.40;;;15.47;;
1925;SDS011;964;42.606;23.588;2024-01-06T04:42:22;36.90;;;19.27;;
1925;SDS011;964;42.606;23.588;2024-01-06T04:44:48;39.27;;;19.10;;
1925;SDS011;964;42.606;23.588;2024-01-06T04:47:16;39.63;;;17.30;;
1925;SDS011;964;42.606;23.588;2024-01-06T04:49:43;31.87;;;18.37;;
1925;SDS011;964;42.606;23.588;2024-01-06T04:52:10;32.97;;;17.60;;
1925;SDS011;964;42.606;23.588;2024-01-06T04:54:37;30.60;;;16.17;;
1925;SDS011;964;42.606;23.588;2024-01-06T04:57:06;29.90;;;16.50;;
1925;SDS011;964;42.606;23.588;2024-01-06T04:59:33;32.03;;;17.20;;
1925;SDS011;964;42.606;23.588;2024-01-06T05:01:59;38.57;;;17.73;;
1925;SDS011;964;42.606;23.588;2024-01-06T05:04:27;28.63;;;15.30;;
1925;SDS011;964;42.606;23.588;2024-01-06T05:06:56;23.00;;;11.70;;
1925;SDS011;964;42.606;23.588;2024-01-06T05:09:23;22.60;;;14.37;;
1925;SDS011;964;42.606;23.588;2024-01-06T05:11:49;23.27;;;15.17;;
1925;SDS011;964;42.606;23.588;2024-01-06T05:14:18;32.10;;;16.60;;
1925;SDS011;964;42.606;23.588;2024-01-06T05:16:44;32.37;;;18.13;;
1925;SDS011;964;42.606;23.588;2024-01-06T05:19:11;24.80;;;16.03;;
1925;SDS011;964;42.606;23.588;2024-01-06T05:21:44;22.60;;;16.20;;
1925;SDS011;964;42.606;23.588;2024-01-06T05:24:11;30.63;;;17.87;;
1925;SDS011;964;42.606;23.588;2024-01-06T05:26:38;38.10;;;18.03;;
1925;SDS011;964;42.606;23.588;2024-01-06T05:29:05;24.27;;;15.60;;
1925;SDS011;964;42.606;23.588;2024-01-06T05:31:33;29.63;;;14.60;;
1925;SDS011;964;42.606;23.588;2024-01-06T05:34:00;33.33;;;15.63;;
1925;SDS011;964;42.606;23.588;2024-01-06T05:36:27;24.57;;;13.80;;
1925;SDS011;964;42.606;23.588;2024-01-06T05:38:53;28.30;;;14.77;;
1925;SDS011;964;42.606;23.588;2024-01-06T05:41:20;18.83;;;11.67;;
1925;SDS011;964;42.606;23.588;2024-01-06T05:43:47;18.73;;;12.60;;
1925;SDS011;964;42.606;23.588;2024-01-06T05:46:20;22.90;;;16.20;;
1925;SDS011;964;42.606;23.588;2024-01-06T05:48:49;23.93;;;15.10;;
1925;SDS011;964;42.606;23.588;2024-01-06T05:51:15;30.20;;;17.20;;
1925;SDS011;964;42.606;23.588;2024-01-06T05:53:42;26.13;;;14.67;;
1925;SDS011;964;42.606;23.588;2024-01-06T05:56:09;22.30;;;14.00;;
1925;SDS011;964;42.606;23.588;2024-01-06T05:58:36;19.57;;;8.40;;
1925;SDS011;964;42.606;23.588;2024-01-06T06:01:03;26.40;;;18.13;;
1925;SDS011;964;42.606;23.588;2024-01-06T06:03:30;42.93;;;21.90;;
1925;SDS011;964;42.606;23.588;2024-01-06T06:05:58;46.03;;;22.73;;
1925;SDS011;964;42.606;23.588;2024-01-06T06:08:25;31.43;;;16.57;;
1925;SDS011;964;42.606;23.588;2024-01-06T06:10:52;26.30;;;14.30;;
1925;SDS011;964;42.606;23.588;2024-01-06T06:13:26;12.77;;;9.50;;
1925;SDS011;964;42.606;23.588;2024-01-06T06:15:54;12.30;;;7.70;;
1925;SDS011;964;42.606;23.588;2024-01-06T06:18:21;13.50;;;6.47;;
1925;SDS011;964;42.606;23.588;2024-01-06T06:20:48;9.00;;;5.30;;
1925;SDS011;964;42.606;23.588;2024-01-06T06:23:16;5.70;;;5.07;;
1925;SDS011;964;42.606;23.588;2024-01-06T06:25:43;24.13;;;14.10;;
1925;SDS011;964;42.606;23.588;2024-01-06T06:28:09;26.83;;;14.83;;
1925;SDS011;964;42.606;23.588;2024-01-06T06:30:36;26.67;;;13.53;;
1925;SDS011;964;42.606;23.588;2024-01-06T06:33:03;23.77;;;11.40;;
1925;SDS011;964;42.606;23.588;2024-01-06T06:35:31;37.90;;;18.07;;
1925;SDS011;964;42.606;23.588;2024-01-06T06:37:58;45.93;;;25.20;;
1925;SDS011;964;42.606;23.588;2024-01-06T06:40:27;21.30;;;13.93;;
1925;SDS011;964;42.606;23.588;2024-01-06T06:42:54;24.10;;;15.03;;
1925;SDS011;964;42.606;23.588;2024-01-06T06:45:20;41.77;;;20.70;;
1925;SDS011;964;42.606;23.588;2024-01-06T06:47:48;36.87;;;20.17;;
1925;SDS011;964;42.606;23.588;2024-01-06T06:50:15;22.73;;;15.10;;
1925;SDS011;964;42.606;23.588;2024-01-06T06:52:43;41.17;;;23.20;;
1925;SDS011;964;42.606;23.588;2024-01-06T06:55:10;27.23;;;16.70;;
1925;SDS011;964;42.606;23.588;2024-01-06T06:57:39;33.47;;;17.50;;
1925;SDS011;964;42.606;23.588;2024-01-06T07:00:06;32.47;;;15.80;;
1925;SDS011;964;42.606;23.588;2024-01-06T07:02:34;18.73;;;12.90;;
1925;SDS011;964;42.606;23.588;2024-01-06T07:05:01;16.77;;;10.70;;
1925;SDS011;964;42.606;23.588;2024-01-06T07:07:27;25.47;;;14.00;;
1925;SDS011;964;42.606;23.588;2024-01-06T07:09:54;18.40;;;12.10;;
1925;SDS011;964;42.606;23.588;2024-01-06T07:12:21;22.70;;;14.60;;
1925;SDS011;964;42.606;23.588;2024-01-06T07:14:49;21.63;;;13.20;;
1925;SDS011;964;42.606;23.588;2024-01-06T07:17:16;28.30;;;16.90;;
1925;SDS011;964;42.606;23.588;2024-01-06T07:19:43;24.80;;;14.33;;
1925;SDS011;964;42.606;23.588;2024-01-06T07:22:10;51.40;;;25.37;;
1925;SDS011;964;42.606;23.588;2024-01-06T07:24:37;47.90;;;31.17;;
1925;SDS011;964;42.606;23.588;2024-01-06T07:27:04;47.77;;;30.93;;
1925;SDS011;964;42.606;23.588;2024-01-06T07:29:31;49.33;;;30.00;;
1925;SDS011;964;42.606;23.588;2024-01-06T07:31:59;45.13;;;29.43;;
1925;SDS011;964;42.606;23.588;2024-01-06T07:34:26;35.47;;;20.40;;
1925;SDS011;964;42.606;23.588;2024-01-06T07:36:53;19.73;;;15.40;;
1925;SDS011;964;42.606;23.588;2024-01-06T07:39:20;19.60;;;13.40;;
1925;SDS011;964;42.606;23.588;2024-01-06T07:41:49;15.93;;;11.50;;
1925;SDS011;964;42.606;23.588;2024-01-06T07:44:16;14.40;;;9.70;;
1925;SDS011;964;42.606;23.588;2024-01-06T07:46:47;13.07;;;9.20;;
1925;SDS011;964;42.606;23.588;2024-01-06T07:49:16;12.77;;;8.60;;
1925;SDS011;964;42.606;23.588;2024-01-06T07:51:42;13.20;;;9.60;;
1925;SDS011;964;42.606;23.588;2024-01-06T07:54:09;12.80;;;9.50;;
1925;SDS011;964;42.606;23.588;2024-01-06T07:56:36;12.63;;;9.30;;
1925;SDS011;964;42.606;23.588;2024-01-06T07:59:04;12.07;;;8.37;;
1925;SDS011;964;42.606;23.588;2024-01-06T08:01:31;12.60;;;8.60;;
1925;SDS011;964;42.606;23.588;2024-01-06T08:03:58;12.10;;;9.00;;
1925;SDS011;964;42.606;23.588;2024-01-06T08:06:26;11.50;;;8.33;;
1925;SDS011;964;42.606;23.588;2024-01-06T08:08:53;12.10;;;7.60;;
1925;SDS011;964;42.606;23.588;2024-01-06T08:11:21;12.67;;;7.07;;
1925;SDS011;964;42.606;23.588;2024-01-06T08:13:48;8.80;;;7.00;;
1925;SDS011;964;42.606;23.588;2024-01-06T08:16:15;13.43;;;7.50;;
1925;SDS011;964;42.606;23.588;2024-01-06T08:18:41;12.43;;;8.53;;
1925;SDS011;964;42.606;23.588;2024-01-06T08:21:08;11.10;;;8.37;;
1925;SDS011;964;42.606;23.588;2024-01-06T08:23:37;12.57;;;8.10;;
1925;SDS011;964;42.606;23.588;2024-01-06T08:26:04;11.07;;;8.27;;
1925;SDS011;964;42.606;23.588;2024-01-06T08:28:31;11.77;;;8.37;;
1925;SDS011;964;42.606;23.588;2024-01-06T08:30:58;14.60;;;7.90;;
1925;SDS011;964;42.606;23.588;2024-01-06T08:33:25;18.60;;;9.00;;
1925;SDS011;964;42.606;23.588;2024-01-06T08:35:52;13.90;;;8.60;;
1925;SDS011;964;42.606;23.588;2024-01-06T08:38:19;16.13;;;8.30;;
1925;SDS011;964;42.606;23.588;2024-01-06T08:40:49;15.33;;;7.00;;
1925;SDS011;964;42.606;23.588;2024-01-06T08:43:17;8.50;;;6.73;;
1925;SDS011;964;42.606;23.588;2024-01-06T08:45:44;11.60;;;8.13;;
1925;SDS011;964;42.606;23.588;2024-01-06T08:48:10;32.20;;;22.60;;
1925;SDS011;964;42.606;23.588;2024-01-06T08:50:38;34.83;;;24.27;;
1925;SDS011;964;42.606;23.588;2024-01-06T08:53:05;41.00;;;28.17;;
1925;SDS011;964;42.606;23.588;2024-01-06T08:55:32;39.07;;;26.07;;
1925;SDS011;964;42.606;23.588;2024-01-06T08:58:00;38.07;;;26.10;;
1925;SDS011;964;42.606;23.588;2024-01-06T09:00:27;49.53;;;31.03;;
1925;SDS011;964;42.606;23.588;2024-01-06T09:02:54;26.20;;;18.20;;
1925;SDS011;964;42.606;23.588;2024-01-06T09:05:21;26.83;;;17.17;;
1925;SDS011;964;42.606;23.588;2024-01-06T09:07:48;20.57;;;12.67;;
1925;SDS011;964;42.606;23.588;2024-01-06T09:10:15;24.37;;;14.60;;
1925;SDS011;964;42.606;23.588;2024-01-06T09:12:43;21.27;;;12.67;;
1925;SDS011;964;42.606;23.588;2024-01-06T09:15:11;16.67;;;12.63;;
1925;SDS011;964;42.606;23.588;2024-01-06T09:17:38;14.80;;;11.67;;
1925;SDS011;964;42.606;23.588;2024-01-06T09:20:05;14.00;;;10.97;;
1925;SDS011;964;42.606;23.588;2024-01-06T09:22:33;14.53;;;9.90;;
1925;SDS011;964;42.606;23.588;2024-01-06T09:25:00;12.80;;;9.60;;
1925;SDS011;964;42.606;23.588;2024-01-06T09:27:27;14.50;;;9.67;;
1925;SDS011;964;42.606;23.588;2024-01-06T09:29:55;14.30;;;10.13;;
1925;SDS011;964;42.606;23.588;2024-01-06T09:32:23;18.70;;;10.57;;
1925;SDS011;964;42.606;23.588;2024-01-06T09:34:50;12.63;;;9.13;;
1925;SDS011;964;42.606;23.588;2024-01-06T09:37:16;15.57;;;10.87;;
1925;SDS011;964;42.606;23.588;2024-01-06T09:39:43;10.67;;;9.07;;
1925;SDS011;964;42.606;23.588;2024-01-06T09:42:10;15.03;;;10.20;;
1925;SDS011;964;42.606;23.588;2024-01-06T09:44:37;13.43;;;9.43;;
1925;SDS011;964;42.606;23.588;2024-01-06T09:47:04;13.40;;;8.10;;
1925;SDS011;964;42.606;23.588;2024-01-06T09:49:34;14.77;;;9.00;;
1925;SDS011;964;42.606;23.588;2024-01-06T09:52:04;14.27;;;9.20;;
1925;SDS011;964;42.606;23.588;2024-01-06T09:54:38;13.83;;;8.40;;
1925;SDS011;964;42.606;23.588;2024-01-06T09:57:07;11.20;;;8.70;;
1925;SDS011;964;42.606;23.588;2024-01-06T09:59:34;11.63;;;8.20;;
1925;SDS011;964;42.606;23.588;2024-01-06T10:02:03;12.63;;;9.17;;
1925;SDS011;964;42.606;23.588;2024-01-06T10:04:31;14.80;;;10.20;;
1925;SDS011;964;42.606;23.588;2024-01-06T10:07:00;22.30;;;11.20;;
1925;SDS011;964;42.606;23.588;2024-01-06T10:09:27;15.00;;;10.47;;
1925;SDS011;964;42.606;23.588;2024-01-06T10:11:54;16.30;;;10.40;;
1925;SDS011;964;42.606;23.588;2024-01-06T10:14:23;16.13;;;10.83;;
1925;SDS011;964;42.606;23.588;2024-01-06T10:16:50;20.03;;;11.80;;
1925;SDS011;964;42.606;23.588;2024-01-06T10:19:17;15.87;;;10.57;;
1925;SDS011;964;42.606;23.588;2024-01-06T10:21:45;15.10;;;10.47;;
1925;SDS011;964;42.606;23.588;2024-01-06T10:24:12;14.97;;;10.67;;
1925;SDS011;964;42.606;23.588;2024-01-06T10:26:39;17.67;;;11.03;;
1925;SDS011;964;42.606;23.588;2024-01-06T10:29:06;12.63;;;10.40;;
1925;SDS011;964;42.606;23.588;2024-01-06T10:31:33;15.00;;;11.57;;
1925;SDS011;964;42.606;23.588;2024-01-06T10:34:00;14.57;;;10.13;;
1925;SDS011;964;42.606;23.588;2024-01-06T10:36:27;14.63;;;9.73;;
1925;SDS011;964;42.606;23.588;2024-01-06T10:38:57;20.00;;;10.93;;
1925;SDS011;964;42.606;23.588;2024-01-06T10:41:26;14.97;;;11.50;;
1925;SDS011;964;42.606;23.588;2024-01-06T10:43:54;15.97;;;11.50;;
1925;SDS011;964;42.606;23.588;2024-01-06T10:46:26;16.30;;;11.30;;
1925;SDS011;964;42.606;23.588;2024-01-06T10:48:55;13.57;;;10.60;;
1925;SDS011;964;42.606;23.588;2024-01-06T10:51:23;15.53;;;10.67;;
1925;SDS011;964;42.606;23.588;2024-01-06T10:53:54;21.53;;;11.40;;
1925;SDS011;964;42.606;23.588;2024-01-06T10:56:25;15.53;;;10.57;;
1925;SDS011;964;42.606;23.588;2024-01-06T10:58:53;13.73;;;10.77;;
1925;SDS011;964;42.606;23.588;2024-01-06T11:01:22;13.37;;;9.30;;
1925;SDS011;964;42.606;23.588;2024-01-06T11:03:50;15.93;;;10.13;;
1925;SDS011;964;42.606;23.588;2024-01-06T11:06:19;15.07;;;10.43;;
1925;SDS011;964;42.606;23.588;2024-01-06T11:08:48;21.03;;;12.40;;
1925;SDS011;964;42.606;23.588;2024-01-06T11:11:19;18.03;;;11.73;;
1925;SDS011;964;42.606;23.588;2024-01-06T11:13:50;13.10;;;10.10;;
1925;SDS011;964;42.606;23.588;2024-01-06T11:16:35;6.13;;;4.90;;
1925;SDS011;964;42.606;23.588;2024-01-06T11:19:04;4.90;;;2.93;;
1925;SDS011;964;42.606;23.588;2024-01-06T11:22:18;4.40;;;3.30;;
1925;SDS011;964;42.606;23.588;2024-01-06T11:24:46;5.87;;;3.90;;
1925;SDS011;964;42.606;23.588;2024-01-06T11:27:16;4.87;;;3.50;;
1925;SDS011;964;42.606;23.588;2024-01-06T11:29:45;5.60;;;3.27;;
1925;SDS011;964;42.606;23.588;2024-01-06T11:32:25;10.27;;;5.67;;
1925;SDS011;964;42.606;23.588;2024-01-06T11:34:54;13.80;;;8.17;;
1925;SDS011;964;42.606;23.588;2024-01-06T11:37:24;32.97;;;15.33;;
1925;SDS011;964;42.606;23.588;2024-01-06T11:39:52;18.87;;;10.00;;
1925;SDS011;964;42.606;23.588;2024-01-06T11:42:19;64.67;;;28.53;;
1925;SDS011;964;42.606;23.588;2024-01-06T11:44:50;98.60;;;39.13;;
1925;SDS011;964;42.606;23.588;2024-01-06T11:47:18;34.97;;;15.20;;
1925;SDS011;964;42.606;23.588;2024-01-06T11:49:48;73.90;;;30.33;;
1925;SDS011;964;42.606;23.588;2024-01-06T11:52:21;18.77;;;8.30;;
1925;SDS011;964;42.606;23.588;2024-01-06T11:54:50;22.80;;;11.47;;
1925;SDS011;964;42.606;23.588;2024-01-06T11:57:18;29.80;;;13.40;;
1925;SDS011;964;42.606;23.588;2024-01-06T11:59:45;8.90;;;4.70;;
1925;SDS011;964;42.606;23.588;2024-01-06T12:02:14;32.13;;;16.53;;
1925;SDS011;964;42.606;23.588;2024-01-06T12:04:41;5.50;;;3.77;;
1925;SDS011;964;42.606;23.588;2024-01-06T12:07:09;12.87;;;7.90;;
1925;SDS011;964;42.606;23.588;2024-01-06T12:09:38;4.03;;;2.90;;
1925;SDS011;964;42.606;23.588;2024-01-06T12:12:05;6.00;;;4.90;;
1925;SDS011;964;42.606;23.588;2024-01-06T12:14:34;7.20;;;5.10;;
1925;SDS011;964;42.606;23.588;2024-01-06T12:17:01;7.10;;;4.40;;
1925;SDS011;964;42.606;23.588;2024-01-06T12:19:30;4.33;;;2.73;;
1925;SDS011;964;42.606;23.588;2024-01-06T12:21:57;8.37;;;4.50;;
1925;SDS011;964;42.606;23.588;2024-01-06T12:24:26;16.53;;;7.83;;
1925;SDS011;964;42.606;23.588;2024-01-06T12:26:55;4.27;;;3.80;;
1925;SDS011;964;42.606;23.588;2024-01-06T12:29:22;9.70;;;6.93;;
1925;SDS011;964;42.606;23.588;2024-01-06T12:31:52;3.80;;;3.10;;
1925;SDS011;964;42.606;23.588;2024-01-06T12:34:19;8.60;;;4.80;;
1925;SDS011;964;42.606;23.588;2024-01-06T12:36:48;4.37;;;3.97;;
1925;SDS011;964;42.606;23.588;2024-01-06T12:39:20;6.47;;;5.03;;
1925;SDS011;964;42.606;23.588;2024-01-06T12:41:48;10.60;;;6.43;;
1925;SDS011;964;42.606;23.588;2024-01-06T12:44:16;8.20;;;5.80;;
1925;SDS011;964;42.606;23.588;2024-01-06T12:46:43;3.67;;;2.90;;
1925;SDS011;964;42.606;23.588;2024-01-06T12:49:10;5.27;;;3.57;;
1925;SDS011;964;42.606;23.588;2024-01-06T12:51:38;6.77;;;3.57;;
1925;SDS011;964;42.606;23.588;2024-01-06T12:54:06;3.30;;;2.47;;
1925;SDS011;964;42.606;23.588;2024-01-06T12:56:33;4.97;;;3.10;;
1925;SDS011;964;42.606;23.588;2024-01-06T12:58:59;4.40;;;3.13;;
1925;SDS011;964;42.606;23.588;2024-01-06T13:01:27;4.17;;;3.30;;
1925;SDS011;964;42.606;23.588;2024-01-06T13:03:54;4.60;;;2.50;;
1925;SDS011;964;42.606;23.588;2024-01-06T13:06:24;4.63;;;2.70;;
1925;SDS011;964;42.606;23.588;2024-01-06T13:08:51;11.20;;;5.20;;
1925;SDS011;964;42.606;23.588;2024-01-06T13:11:19;6.57;;;4.90;;
1925;SDS011;964;42.606;23.588;2024-01-06T13:13:47;3.63;;;2.83;;
1925;SDS011;964;42.606;23.588;2024-01-06T13:16:13;11.83;;;6.40;;
1925;SDS011;964;42.606;23.588;2024-01-06T13:18:40;5.87;;;4.00;;
1925;SDS011;964;42.606;23.588;2024-01-06T13:21:07;4.90;;;3.70;;
1925;SDS011;964;42.606;23.588;2024-01-06T13:23:34;7.40;;;4.53;;
1925;SDS011;964;42.606;23.588;2024-01-06T13:26:01;3.50;;;2.67;;
1925;SDS011;964;42.606;23.588;2024-01-06T13:28:29;4.47;;;3.20;;
1925;SDS011;964;42.606;23.588;2024-01-06T13:30:56;10.00;;;6.37;;
1925;SDS011;964;42.606;23.588;2024-01-06T13:33:23;13.40;;;6.33;;
1925;SDS011;964;42.606;23.588;2024-01-06T13:35:50;9.83;;;5.90;;
1925;SDS011;964;42.606;23.588;2024-01-06T13:38:17;10.53;;;5.83;;
1925;SDS011;964;42.606;23.588;2024-01-06T13:40:44;5.90;;;4.20;;
1925;SDS011;964;42.606;23.588;2024-01-06T13:43:11;26.03;;;11.77;;
1925;SDS011;964;42.606;23.588;2024-01-06T13:45:42;15.07;;;7.77;;
1925;SDS011;964;42.606;23.588;2024-01-06T13:48:09;11.77;;;7.80;;
1925;SDS011;964;42.606;23.588;2024-01-06T13:50:36;11.70;;;7.27;;
1925;SDS011;964;42.606;23.588;2024-01-06T13:53:03;11.63;;;5.67;;
1925;SDS011;964;42.606;23.588;2024-01-06T13:55:31;21.93;;;10.13;;
1925;SDS011;964;42.606;23.588;2024-01-06T13:57:59;89.03;;;26.27;;
1925;SDS011;964;42.606;23.588;2024-01-06T14:00:25;38.80;;;16.80;;
1925;SDS011;964;42.606;23.588;2024-01-06T14:02:54;42.27;;;16.03;;
1925;SDS011;964;42.606;23.588;2024-01-06T14:05:21;79.33;;;32.90;;
1925;SDS011;964;42.606;23.588;2024-01-06T14:07:48;21.73;;;10.43;;
1925;SDS011;964;42.606;23.588;2024-01-06T14:10:16;27.50;;;15.97;;
1925;SDS011;964;42.606;23.588;2024-01-06T14:12:43;20.03;;;10.70;;
1925;SDS011;964;42.606;23.588;2024-01-06T14:15:09;19.53;;;12.53;;
1925;SDS011;964;42.606;23.588;2024-01-06T14:17:37;16.00;;;8.00;;
1925;SDS011;964;42.606;23.588;2024-01-06T14:20:06;23.00;;;12.50;;
1925;SDS011;964;42.606;23.588;2024-01-06T14:22:37;19.00;;;10.00;;
1925;SDS011;964;42.606;23.588;2024-01-06T14:25:05;16.50;;;8.80;;
1925;SDS011;964;42.606;23.588;2024-01-06T14:27:32;17.70;;;9.50;;
1925;SDS011;964;42.606;23.588;2024-01-06T14:29:59;10.43;;;7.73;;
1925;SDS011;964;42.606;23.588;2024-01-06T14:32:26;19.87;;;10.53;;
1925;SDS011;964;42.606;23.588;2024-01-06T14:34:54;16.43;;;8.30;;
1925;SDS011;964;42.606;23.588;2024-01-06T14:37:22;16.63;;;11.53;;
1925;SDS011;964;42.606;23.588;2024-01-06T14:39:49;15.63;;;8.40;;
1925;SDS011;964;42.606;23.588;2024-01-06T14:42:16;14.33;;;9.83;;
1925;SDS011;964;42.606;23.588;2024-01-06T14:44:44;20.67;;;11.50;;
1925;SDS011;964;42.606;23.588;2024-01-06T14:47:11;15.43;;;10.87;;
1925;SDS011;964;42.606;23.588;2024-01-06T14:49:38;15.77;;;8.83;;
1925;SDS011;964;42.606;23.588;2024-01-06T14:52:05;15.50;;;10.20;;
1925;SDS011;964;42.606;23.588;2024-01-06T14:54:33;20.00;;;13.37;;
1925;SDS011;964;42.606;23.588;2024-01-06T14:57:01;19.77;;;12.03;;
1925;SDS011;964;42.606;23.588;2024-01-06T14:59:28;19.33;;;10.97;;
1925;SDS011;964;42.606;23.588;2024-01-06T15:01:55;22.73;;;14.57;;